sensor_id;sensor_type;location;lat;lon;timestamp;pressure;altitude;pressure_sealevel;temperature;humidity
68197;BME280;55019;49.382;11.358;2023-02-14T00:01:48;98511.91;;;1.00;99.49
68197;BME280;55019;49.382;11.358;2023-02-14T00:04:16;98513.94;;;0.92;100.00
68197;BME280;55019;49.382;11.358;2023-02-14T00:06:42;98504.38;;;0.76;100.00
68197;BME280;55019;49.382;11.358;2023-02-14T00:09:11;98509.84;;;0.65;100.00
68197;BME280;55019;49.382;11.358;2023-02-14T00:11:37;98508.84;;;0.92;100.00
68197;BME280;55019;49.382;11.358;2023-02-14T00:14:03;98508.63;;;0.75;100.00
68197;BME280;55019;49.382;11.358;2023-02-14T00:16:47;98507.31;;;0.88;100.00
68197;BME280;55019;49.382;11.358;2023-02-14T00:19:18;98514.59;;;0.74;100.00
68197;BME280;55019;49.382;11.358;2023-02-14T00:21:45;98502.19;;;0.67;100.00
68197;BME280;55019;49.382;11.358;2023-02-14T00:24:13;98503.09;;;0.64;100.00
68197;BME280;55019;49.382;11.358;2023-02-14T00:26:39;98501.22;;;0.69;100.00
68197;BME280;55019;49.382;11.358;2023-02-14T00:29:11;98504.41;;;0.74;100.00
68197;BME280;55019;49.382;11.358;2023-02-14T00:31:37;98503.75;;;0.92;100.00
68197;BME280;55019;49.382;11.358;2023-02-14T00:34:04;98507.41;;;0.85;100.00
68197;BME280;55019;49.382;11.358;2023-02-14T00:36:30;98509.00;;;1.09;100.00
68197;BME280;55019;49.382;11.358;2023-02-14T00:38:55;98512.72;;;1.01;100.00
68197;BME280;55019;49.382;11.358;2023-02-14T00:41:21;98510.88;;;1.06;100.00
68197;BME280;55019;49.382;11.358;2023-02-14T00:43:48;98506.88;;;1.20;100.00
68197;BME280;55019;49.382;11.358;2023-02-14T00:46:15;98511.50;;;1.32;99.79
68197;BME280;55019;49.382;11.358;2023-02-14T00:48:41;98517.25;;;1.16;99.48
68197;BME280;55019;49.382;11.358;2023-02-14T00:51:07;98512.84;;;1.19;99.87
68197;BME280;55019;49.382;11.358;2023-02-14T00:53:32;98516.47;;;1.14;99.71
68197;BME280;55019;49.382;11.358;2023-02-14T00:55:58;98520.50;;;1.19;99.92
68197;BME280;55019;49.382;11.358;2023-02-14T00:58:23;98522.56;;;0.88;100.00
68197;BME280;55019;49.382;11.358;2023-02-14T01:00:49;98530.63;;;0.76;100.00
68197;BME280;55019;49.382;11.358;2023-02-14T01:03:14;98525.72;;;0.72;100.00
68197;BME280;55019;49.382;11.358;2023-02-14T01:05:40;98518.25;;;0.67;100.00
68197;BME280;55019;49.382;11.358;2023-02-14T01:08:05;98518.13;;;0.70;100.00
68197;BME280;55019;49.382;11.358;2023-02-14T01:10:31;98523.00;;;0.76;100.00
68197;BME280;55019;49.382;11.358;2023-02-14T01:12:56;98515.16;;;0.82;100.00
68197;BME280;55019;49.382;11.358;2023-02-14T01:15:22;98514.81;;;0.68;100.00
68197;BME280;55019;49.382;11.358;2023-02-14T01:17:47;98516.81;;;0.60;100.00
68197;BME280;55019;49.382;11.358;2023-02-14T01:20:13;98519.06;;;0.91;100.00
68197;BME280;55019;49.382;11.358;2023-02-14T01:22:39;98519.13;;;0.66;100.00
68197;BME280;55019;49.382;11.358;2023-02-14T01:25:05;98517.94;;;0.53;100.00
68197;BME280;55019;49.382;11.358;2023-02-14T01:27:31;98508.56;;;0.77;100.00
68197;BME280;55019;49.382;11.358;2023-02-14T01:29:56;98518.13;;;0.70;100.00
68197;BME280;55019;49.382;11.358;2023-02-14T01:32:21;98514.97;;;0.42;100.00
68197;BME280;55019;49.382;11.358;2023-02-14T01:34:47;98521.25;;;0.32;100.00
68197;BME280;55019;49.382;11.358;2023-02-14T01:37:13;98509.31;;;0.34;100.00
68197;BME280;55019;49.382;11.358;2023-02-14T01:39:39;98517.06;;;0.31;100.00
68197;BME280;55019;49.382;11.358;2023-02-14T01:42:05;98519.72;;;0.28;100.00
68197;BME280;55019;49.382;11.358;2023-02-14T01:46:57;98534.56;;;0.39;100.00
68197;BME280;55019;49.382;11.358;2023-02-14T01:49:40;98524.78;;;0.28;100.00
68197;BME280;55019;49.382;11.358;2023-02-14T01:54:46;98518.34;;;0.18;100.00
68197;BME280;55019;49.382;11.358;2023-02-14T01:57:15;98521.38;;;0.29;100.00
68197;BME280;55019;49.382;11.358;2023-02-14T01:59:48;98508.69;;;0.28;100.00
68197;BME280;55019;49.382;11.358;2023-02-14T02:02:16;98510.28;;;0.07;100.00
68197;BME280;55019;49.382;11.358;2023-02-14T02:04:48;98509.25;;;0.13;100.00
68197;BME280;55019;49.382;11.358;2023-02-14T02:07:21;98507.84;;;0.04;100.00
68197;BME280;55019;49.382;11.358;2023-02-14T02:09:53;98503.97;;;0.17;100.00
68197;BME280;55019;49.382;11.358;2023-02-14T02:12:20;98512.53;;;0.39;100.00
68197;BME280;55019;49.382;11.358;2023-02-14T02:14:46;98516.53;;;0.45;100.00
68197;BME280;55019;49.382;11.358;2023-02-14T02:20:02;98517.16;;;0.28;100.00
68197;BME280;55019;49.382;11.358;2023-02-14T02:30:21;98507.91;;;0.49;100.00
68197;BME280;55019;49.382;11.358;2023-02-14T02:35:41;98502.06;;;0.24;100.00
68197;BME280;55019;49.382;11.358;2023-02-14T02:44:01;98491.72;;;0.05;100.00
68197;BME280;55019;49.382;11.358;2023-02-14T02:46:51;98506.63;;;0.14;100.00
68197;BME280;55019;49.382;11.358;2023-02-14T02:55:36;98507.09;;;0.25;100.00
68197;BME280;55019;49.382;11.358;2023-02-14T02:58:28;98507.84;;;0.04;100.00
68197;BME280;55019;49.382;11.358;2023-02-14T03:00:56;98507.81;;;0.06;100.00
68197;BME280;55019;49.382;11.358;2023-02-14T03:03:24;98506.13;;;0.29;100.00
68197;BME280;55019;49.382;11.358;2023-02-14T03:06:09;98509.13;;;0.39;100.00
68197;BME280;55019;49.382;11.358;2023-02-14T03:08:35;98507.91;;;0.03;100.00
68197;BME280;55019;49.382;11.358;2023-02-14T03:11:01;98508.94;;;-0.03;100.00
68197;BME280;55019;49.382;11.358;2023-02-14T03:14:07;98498.34;;;-0.15;100.00
68197;BME280;55019;49.382;11.358;2023-02-14T03:16:53;98507.31;;;-0.29;100.00
68197;BME280;55019;49.382;11.358;2023-02-14T03:28:17;98500.66;;;-0.32;100.00
68197;BME280;55019;49.382;11.358;2023-02-14T03:31:06;98508.94;;;-0.27;100.00
68197;BME280;55019;49.382;11.358;2023-02-14T03:33:58;98502.72;;;-0.18;100.00
68197;BME280;55019;49.382;11.358;2023-02-14T03:36:30;98500.31;;;0.01;100.00
68197;BME280;55019;49.382;11.358;2023-02-14T03:42:07;98496.13;;;0.23;100.00
68197;BME280;55019;49.382;11.358;2023-02-14T03:44:36;98500.53;;;-0.04;100.00
68197;BME280;55019;49.382;11.358;2023-02-14T03:47:08;98501.34;;;0.20;100.00
68197;BME280;55019;49.382;11.358;2023-02-14T03:49:39;98493.41;;;0.29;100.00
68197;BME280;55019;49.382;11.358;2023-02-14T03:52:06;98512.41;;;0.42;100.00
68197;BME280;55019;49.382;11.358;2023-02-14T03:54:34;98497.25;;;0.16;100.00
68197;BME280;55019;49.382;11.358;2023-02-14T03:59:28;98490.75;;;0.32;100.00
68197;BME280;55019;49.382;11.358;2023-02-14T04:02:05;98498.13;;;0.15;100.00
68197;BME280;55019;49.382;11.358;2023-02-14T04:04:35;98503.22;;;0.15;100.00
68197;BME280;55019;49.382;11.358;2023-02-14T04:09:34;98502.72;;;-0.18;100.00
68197;BME280;55019;49.382;11.358;2023-02-14T04:11:59;98500.78;;;-0.12;100.00
68197;BME280;55019;49.382;11.358;2023-02-14T04:14:25;98508.78;;;0.02;100.00
68197;BME280;55019;49.382;11.358;2023-02-14T04:16:53;98496.69;;;0.08;100.00
68197;BME280;55019;49.382;11.358;2023-02-14T04:19:37;98496.31;;;0.19;100.00
68197;BME280;55019;49.382;11.358;2023-02-14T04:22:03;98498.34;;;0.09;100.00
68197;BME280;55019;49.382;11.358;2023-02-14T04:24:28;98494.63;;;0.42;100.00
68197;BME280;55019;49.382;11.358;2023-02-14T04:26:54;98497.38;;;0.36;100.00
68197;BME280;55019;49.382;11.358;2023-02-14T04:29:38;98494.91;;;0.10;100.00
68197;BME280;55019;49.382;11.358;2023-02-14T04:32:09;98490.25;;;0.23;100.00
68197;BME280;55019;49.382;11.358;2023-02-14T04:34:36;98495.66;;;0.14;100.00
68197;BME280;55019;49.382;11.358;2023-02-14T04:37:01;98483.88;;;0.11;100.00
68197;BME280;55019;49.382;11.358;2023-02-14T04:39:27;98482.41;;;0.06;100.00
68197;BME280;55019;49.382;11.358;2023-02-14T04:41:52;98482.16;;;0.35;100.00
68197;BME280;55019;49.382;11.358;2023-02-14T04:44:18;98474.03;;;0.25;100.00
68197;BME280;55019;49.382;11.358;2023-02-14T04:46:43;98472.63;;;0.41;100.00
68197;BME280;55019;49.382;11.358;2023-02-14T04:49:09;98482.00;;;0.39;100.00
68197;BME280;55019;49.382;11.358;2023-02-14T04:51:34;98476.09;;;0.39;100.00
68197;BME280;55019;49.382;11.358;2023-02-14T04:54:00;98473.88;;;0.53;100.00
68197;BME280;55019;49.382;11.358;2023-02-14T04:56:25;98482.94;;;0.37;100.00
68197;BME280;55019;49.382;11.358;2023-02-14T04:58:52;98486.41;;;0.57;100.00
68197;BME280;55019;49.382;11.358;2023-02-14T05:01:17;98474.53;;;0.35;100.00
68197;BME280;55019;49.382;11.358;2023-02-14T05:03:43;98472.50;;;0.21;100.00
68197;BME280;55019;49.382;11.358;2023-02-14T05:06:08;98477.78;;;0.15;100.00
68197;BME280;55019;49.382;11.358;2023-02-14T05:08:33;98475.16;;;0.41;100.00
68197;BME280;55019;49.382;11.358;2023-02-14T05:10:59;98481.34;;;0.57;100.00
68197;BME280;55019;49.382;11.358;2023-02-14T05:13:24;98480.59;;;0.32;100.00
68197;BME280;55019;49.382;11.358;2023-02-14T05:15:50;98473.47;;;-0.05;100.00
68197;BME280;55019;49.382;11.358;2023-02-14T05:18:15;98460.78;;;0.17;100.00
68197;BME280;55019;49.382;11.358;2023-02-14T05:20:40;98463.66;;;0.31;100.00
68197;BME280;55019;49.382;11.358;2023-02-14T05:23:06;98459.59;;;0.27;100.00
68197;BME280;55019;49.382;11.358;2023-02-14T05:25:40;98460.72;;;0.42;100.00
68197;BME280;55019;49.382;11.358;2023-02-14T05:28:06;98468.69;;;0.56;100.00
68197;BME280;55019;49.382;11.358;2023-02-14T05:30:31;98473.53;;;0.62;100.00
68197;BME280;55019;49.382;11.358;2023-02-14T05:32:57;98466.41;;;0.48;100.00
68197;BME280;55019;49.382;11.358;2023-02-14T05:35:22;98468.50;;;0.60;100.00
68197;BME280;55019;49.382;11.358;2023-02-14T05:37:48;98465.72;;;0.66;100.00
68197;BME280;55019;49.382;11.358;2023-02-14T05:40:13;98466.97;;;0.56;100.00
68197;BME280;55019;49.382;11.358;2023-02-14T05:42:41;98465.56;;;0.71;100.00
68197;BME280;55019;49.382;11.358;2023-02-14T05:45:07;98464.06;;;0.65;100.00
68197;BME280;55019;49.382;11.358;2023-02-14T05:47:32;98467.16;;;0.73;100.00
68197;BME280;55019;49.382;11.358;2023-02-14T05:49:58;98463.41;;;-0.08;100.00
68197;BME280;55019;49.382;11.358;2023-02-14T05:52:23;98461.59;;;-0.29;100.00
68197;BME280;55019;49.382;11.358;2023-02-14T05:54:49;98461.31;;;-0.20;100.00
68197;BME280;55019;49.382;11.358;2023-02-14T05:57:14;98452.25;;;-0.04;100.00
68197;BME280;55019;49.382;11.358;2023-02-14T05:59:39;98459.00;;;-0.03;100.00
68197;BME280;55019;49.382;11.358;2023-02-14T06:02:05;98456.25;;;0.25;100.00
68197;BME280;55019;49.382;11.358;2023-02-14T06:04:30;98445.97;;;0.05;100.00
68197;BME280;55019;49.382;11.358;2023-02-14T06:06:56;98455.09;;;0.11;100.00
68197;BME280;55019;49.382;11.358;2023-02-14T06:09:21;98456.03;;;0.31;100.00
68197;BME280;55019;49.382;11.358;2023-02-14T06:11:47;98454.38;;;0.07;100.00
68197;BME280;55019;49.382;11.358;2023-02-14T06:14:13;98446.06;;;0.02;100.00
68197;BME280;55019;49.382;11.358;2023-02-14T06:16:38;98454.47;;;-0.18;100.00
68197;BME280;55019;49.382;11.358;2023-02-14T06:19:04;98459.66;;;0.01;100.00
68197;BME280;55019;49.382;11.358;2023-02-14T06:21:29;98457.69;;;0.09;100.00
68197;BME280;55019;49.382;11.358;2023-02-14T06:23:54;98454.00;;;0.18;100.00
68197;BME280;55019;49.382;11.358;2023-02-14T06:26:20;98470.41;;;0.32;100.00
68197;BME280;55019;49.382;11.358;2023-02-14T06:28:45;98468.41;;;0.40;100.00
68197;BME280;55019;49.382;11.358;2023-02-14T06:31:15;98472.72;;;0.38;100.00
68197;BME280;55019;49.382;11.358;2023-02-14T06:33:41;98466.00;;;0.37;100.00
68197;BME280;55019;49.382;11.358;2023-02-14T06:36:07;98472.19;;;0.30;100.00
68197;BME280;55019;49.382;11.358;2023-02-14T06:38:33;98469.94;;;0.21;100.00
68197;BME280;55019;49.382;11.358;2023-02-14T06:41:03;98476.69;;;-0.25;100.00
68197;BME280;55019;49.382;11.358;2023-02-14T06:43:29;98473.16;;;-0.45;100.00
68197;BME280;55019;49.382;11.358;2023-02-14T06:45:54;98473.25;;;-0.48;100.00
68197;BME280;55019;49.382;11.358;2023-02-14T06:48:20;98481.41;;;-0.14;100.00
68197;BME280;55019;49.382;11.358;2023-02-14T06:50:46;98485.81;;;0.05;100.00
68197;BME280;55019;49.382;11.358;2023-02-14T06:53:11;98487.97;;;0.15;100.00
68197;BME280;55019;49.382;11.358;2023-02-14T06:55:37;98475.59;;;-0.42;100.00
68197;BME280;55019;49.382;11.358;2023-02-14T06:58:02;98483.41;;;-0.48;100.00
68197;BME280;55019;49.382;11.358;2023-02-14T07:00:28;98477.13;;;-0.37;100.00
68197;BME280;55019;49.382;11.358;2023-02-14T07:02:53;98477.69;;;-0.55;100.00
68197;BME280;55019;49.382;11.358;2023-02-14T07:05:18;98478.56;;;-0.56;100.00
68197;BME280;55019;49.382;11.358;2023-02-14T07:07:44;98482.69;;;-0.27;100.00
68197;BME280;55019;49.382;11.358;2023-02-14T07:10:10;98479.75;;;-0.15;100.00
68197;BME280;55019;49.382;11.358;2023-02-14T07:12:35;98478.56;;;-0.30;100.00
68197;BME280;55019;49.382;11.358;2023-02-14T07:15:05;98478.44;;;-0.51;100.00
68197;BME280;55019;49.382;11.358;2023-02-14T07:17:32;98479.97;;;-0.21;100.00
68197;BME280;55019;49.382;11.358;2023-02-14T07:19:57;98476.72;;;-0.26;100.00
68197;BME280;55019;49.382;11.358;2023-02-14T07:22:22;98475.13;;;-0.53;100.00
68197;BME280;55019;49.382;11.358;2023-02-14T07:24:48;98479.06;;;-0.69;100.00
68197;BME280;55019;49.382;11.358;2023-02-14T07:27:13;98475.09;;;-0.78;100.00
68197;BME280;55019;49.382;11.358;2023-02-14T07:29:39;98468.59;;;-0.60;100.00
68197;BME280;55019;49.382;11.358;2023-02-14T07:32:04;98468.50;;;-0.57;100.00
68197;BME280;55019;49.382;11.358;2023-02-14T07:34:30;98466.41;;;-0.46;100.00
68197;BME280;55019;49.382;11.358;2023-02-14T07:36:55;98467.50;;;-0.04;100.00
68197;BME280;55019;49.382;11.358;2023-02-14T07:39:21;98469.09;;;-0.26;100.00
68197;BME280;55019;49.382;11.358;2023-02-14T07:41:46;98457.59;;;-0.36;100.00
68197;BME280;55019;49.382;11.358;2023-02-14T07:44:13;98462.75;;;-0.62;100.00
68197;BME280;55019;49.382;11.358;2023-02-14T07:46:38;98466.00;;;-0.34;100.00
68197;BME280;55019;49.382;11.358;2023-02-14T07:49:03;98465.88;;;-0.56;100.00
68197;BME280;55019;49.382;11.358;2023-02-14T07:51:29;98463.41;;;-0.57;100.00
68197;BME280;55019;49.382;11.358;2023-02-14T07:53:54;98460.72;;;-0.28;100.00
68197;BME280;55019;49.382;11.358;2023-02-14T07:56:20;98453.84;;;-0.25;100.00
68197;BME280;55019;49.382;11.358;2023-02-14T07:58:45;98455.06;;;-0.36;100.00
68197;BME280;55019;49.382;11.358;2023-02-14T08:01:11;98466.22;;;-0.40;100.00
68197;BME280;55019;49.382;11.358;2023-02-14T08:03:36;98460.00;;;-0.56;100.00
68197;BME280;55019;49.382;11.358;2023-02-14T08:06:02;98470.56;;;-0.68;100.00
68197;BME280;55019;49.382;11.358;2023-02-14T08:08:30;98455.13;;;-0.62;100.00
68197;BME280;55019;49.382;11.358;2023-02-14T08:10:56;98463.09;;;-0.48;100.00
68197;BME280;55019;49.382;11.358;2023-02-14T08:13:21;98452.28;;;-0.53;100.00
68197;BME280;55019;49.382;11.358;2023-02-14T08:15:47;98462.31;;;-0.50;100.00
68197;BME280;55019;49.382;11.358;2023-02-14T08:18:40;98455.22;;;-0.65;100.00
68197;BME280;55019;49.382;11.358;2023-02-14T08:21:08;98463.34;;;-0.56;100.00
68197;BME280;55019;49.382;11.358;2023-02-14T08:23:34;98452.06;;;-0.47;100.00
68197;BME280;55019;49.382;11.358;2023-02-14T08:26:00;98456.06;;;-0.40;100.00
68197;BME280;55019;49.382;11.358;2023-02-14T08:28:26;98456.16;;;-0.19;100.00
68197;BME280;55019;49.382;11.358;2023-02-14T08:30:52;98463.53;;;-0.36;100.00
68197;BME280;55019;49.382;11.358;2023-02-14T08:33:18;98466.75;;;-0.31;100.00
68197;BME280;55019;49.382;11.358;2023-02-14T08:35:43;98469.72;;;-0.18;100.00
68197;BME280;55019;49.382;11.358;2023-02-14T08:38:09;98466.44;;;-0.22;100.00
68197;BME280;55019;49.382;11.358;2023-02-14T08:40:35;98472.94;;;-0.15;100.00
68197;BME280;55019;49.382;11.358;2023-02-14T08:43:02;98467.66;;;-0.09;100.00
68197;BME280;55019;49.382;11.358;2023-02-14T08:45:28;98473.34;;;-0.25;100.00
68197;BME280;55019;49.382;11.358;2023-02-14T08:47:53;98469.72;;;0.04;100.00
68197;BME280;55019;49.382;11.358;2023-02-14T08:50:19;98472.06;;;-0.38;100.00
68197;BME280;55019;49.382;11.358;2023-02-14T08:52:45;98458.88;;;-0.23;100.00
68197;BME280;55019;49.382;11.358;2023-02-14T08:55:11;98459.78;;;-0.26;100.00
68197;BME280;55019;49.382;11.358;2023-02-14T08:57:38;98447.06;;;0.21;100.00
68197;BME280;55019;49.382;11.358;2023-02-14T09:00:05;98449.41;;;0.04;100.00
68197;BME280;55019;49.382;11.358;2023-02-14T09:02:31;98452.34;;;0.17;100.00
68197;BME280;55019;49.382;11.358;2023-02-14T09:04:56;98449.22;;;0.32;100.00
68197;BME280;55019;49.382;11.358;2023-02-14T09:07:22;98457.19;;;0.67;100.00
68197;BME280;55019;49.382;11.358;2023-02-14T09:09:47;98449.22;;;0.76;100.00
68197;BME280;55019;49.382;11.358;2023-02-14T09:12:12;98445.13;;;0.94;100.00
68197;BME280;55019;49.382;11.358;2023-02-14T09:14:41;98450.66;;;0.62;100.00
68197;BME280;55019;49.382;11.358;2023-02-14T09:17:10;98450.19;;;0.29;100.00
68197;BME280;55019;49.382;11.358;2023-02-14T09:19:37;98447.72;;;0.49;100.00
68197;BME280;55019;49.382;11.358;2023-02-14T09:22:03;98438.97;;;0.56;100.00
68197;BME280;55019;49.382;11.358;2023-02-14T09:24:30;98439.22;;;0.50;100.00
68197;BME280;55019;49.382;11.358;2023-02-14T09:26:55;98445.63;;;1.03;100.00
68197;BME280;55019;49.382;11.358;2023-02-14T09:29:24;98448.19;;;1.23;99.89
68197;BME280;55019;49.382;11.358;2023-02-14T09:31:58;98442.63;;;1.55;99.20
68197;BME280;55019;49.382;11.358;2023-02-14T09:34:24;98436.13;;;1.68;98.14
68197;BME280;55019;49.382;11.358;2023-02-14T09:37:10;98434.84;;;1.58;97.25
68197;BME280;55019;49.382;11.358;2023-02-14T09:39:36;98436.59;;;1.57;96.61
68197;BME280;55019;49.382;11.358;2023-02-14T09:44:56;98446.22;;;0.88;99.05
68197;BME280;55019;49.382;11.358;2023-02-14T09:47:46;98442.16;;;0.84;100.00
68197;BME280;55019;49.382;11.358;2023-02-14T09:50:19;98443.72;;;0.87;100.00
68197;BME280;55019;49.382;11.358;2023-02-14T09:52:50;98443.84;;;1.05;100.00
68197;BME280;55019;49.382;11.358;2023-02-14T09:55:17;98442.28;;;1.23;99.18
68197;BME280;55019;49.382;11.358;2023-02-14T10:00:14;98448.53;;;0.94;100.00
68197;BME280;55019;49.382;11.358;2023-02-14T10:02:45;98448.06;;;1.26;100.00
68197;BME280;55019;49.382;11.358;2023-02-14T10:05:17;98443.56;;;1.52;99.24
68197;BME280;55019;49.382;11.358;2023-02-14T10:10:43;98434.69;;;1.21;98.79
68197;BME280;55019;49.382;11.358;2023-02-14T10:13:32;98444.00;;;1.22;100.00
68197;BME280;55019;49.382;11.358;2023-02-14T10:16:08;98438.94;;;1.82;98.46
68197;BME280;55019;49.382;11.358;2023-02-14T10:18:45;98439.94;;;1.78;96.34
68197;BME280;55019;49.382;11.358;2023-02-14T10:21:27;98435.19;;;1.09;97.76
68197;BME280;55019;49.382;11.358;2023-02-14T10:24:01;98439.13;;;0.96;100.00
68197;BME280;55019;49.382;11.358;2023-02-14T10:26:35;98437.63;;;1.12;98.84
68197;BME280;55019;49.382;11.358;2023-02-14T10:29:02;98440.34;;;1.49;99.51
68197;BME280;55019;49.382;11.358;2023-02-14T10:37:28;98432.56;;;1.32;100.00
68197;BME280;55019;49.382;11.358;2023-02-14T10:43:51;98422.38;;;1.52;99.91
68197;BME280;55019;49.382;11.358;2023-02-14T10:45:53;98424.53;;;1.61;99.10
68197;BME280;55019;49.382;11.358;2023-02-14T10:48:26;98413.81;;;1.73;97.68
68197;BME280;55019;49.382;11.358;2023-02-14T10:55:59;98413.22;;;2.06;96.13
68197;BME280;55019;49.382;11.358;2023-02-14T10:58:28;98407.56;;;2.18;95.61
68197;BME280;55019;49.382;11.358;2023-02-14T11:01:00;98414.56;;;1.95;95.22
68197;BME280;55019;49.382;11.358;2023-02-14T11:03:27;98406.94;;;1.95;95.25
68197;BME280;55019;49.382;11.358;2023-02-14T11:05:53;98412.66;;;2.00;96.13
68197;BME280;55019;49.382;11.358;2023-02-14T11:08:35;98411.91;;;1.78;95.43
68197;BME280;55019;49.382;11.358;2023-02-14T11:11:15;98411.78;;;2.19;95.15
68197;BME280;55019;49.382;11.358;2023-02-14T11:13:41;98396.81;;;2.30;94.60
68197;BME280;55019;49.382;11.358;2023-02-14T11:16:12;98392.38;;;2.52;92.10
68197;BME280;55019;49.382;11.358;2023-02-14T11:18:42;98404.78;;;2.23;93.42
68197;BME280;55019;49.382;11.358;2023-02-14T11:21:15;98400.69;;;2.57;93.51
68197;BME280;55019;49.382;11.358;2023-02-14T11:23:45;98396.72;;;2.50;92.01
68197;BME280;55019;49.382;11.358;2023-02-14T11:26:30;98395.16;;;2.29;92.09
68197;BME280;55019;49.382;11.358;2023-02-14T11:31:27;98390.25;;;2.78;90.93
68197;BME280;55019;49.382;11.358;2023-02-14T11:33:54;98390.69;;;2.70;89.59
68197;BME280;55019;49.382;11.358;2023-02-14T11:36:20;98390.22;;;2.97;90.72
68197;BME280;55019;49.382;11.358;2023-02-14T11:38:54;98381.16;;;2.91;90.14
68197;BME280;55019;49.382;11.358;2023-02-14T11:41:20;98378.19;;;2.10;92.17
68197;BME280;55019;49.382;11.358;2023-02-14T11:43:46;98380.19;;;2.22;94.22
68197;BME280;55019;49.382;11.358;2023-02-14T11:51:46;98367.94;;;3.00;89.59
68197;BME280;55019;49.382;11.358;2023-02-14T11:54:34;98369.28;;;2.90;90.43
68197;BME280;55019;49.382;11.358;2023-02-14T11:57:11;98364.13;;;2.74;91.72
68197;BME280;55019;49.382;11.358;2023-02-14T11:59:49;98371.84;;;2.55;91.49
68197;BME280;55019;49.382;11.358;2023-02-14T12:05:16;98357.56;;;2.86;90.63
68197;BME280;55019;49.382;11.358;2023-02-14T12:07:45;98350.50;;;2.91;90.11
68197;BME280;55019;49.382;11.358;2023-02-14T12:23:40;98340.91;;;2.96;90.96
68197;BME280;55019;49.382;11.358;2023-02-14T12:26:27;98336.66;;;2.78;91.25
68197;BME280;55019;49.382;11.358;2023-02-14T12:29:11;98327.09;;;3.00;89.83
68197;BME280;55019;49.382;11.358;2023-02-14T12:31:40;98338.28;;;3.15;89.27
68197;BME280;55019;49.382;11.358;2023-02-14T12:34:12;98326.41;;;3.63;89.54
68197;BME280;55019;49.382;11.358;2023-02-14T12:40:19;98311.75;;;3.67;85.74
68197;BME280;55019;49.382;11.358;2023-02-14T12:42:52;98306.63;;;4.15;84.17
68197;BME280;55019;49.382;11.358;2023-02-14T12:45:44;98317.88;;;3.80;85.60
68197;BME280;55019;49.382;11.358;2023-02-14T12:54:51;98308.63;;;3.77;85.14
68197;BME280;55019;49.382;11.358;2023-02-14T13:00:08;98296.41;;;3.67;86.33
68197;BME280;55019;49.382;11.358;2023-02-14T13:05:45;98283.41;;;4.33;84.14
68197;BME280;55019;49.382;11.358;2023-02-14T13:08:30;98274.50;;;3.94;85.36
68197;BME280;55019;49.382;11.358;2023-02-14T13:11:22;98273.97;;;4.49;84.53
68197;BME280;55019;49.382;11.358;2023-02-14T13:14:21;98263.31;;;4.86;82.48
68197;BME280;55019;49.382;11.358;2023-02-14T13:16:56;98265.72;;;4.89;81.34
68197;BME280;55019;49.382;11.358;2023-02-14T13:21:56;98250.53;;;5.00;80.77
68197;BME280;55019;49.382;11.358;2023-02-14T13:24:25;98260.69;;;4.72;81.37
68197;BME280;55019;49.382;11.358;2023-02-14T13:26:55;98256.88;;;4.79;80.84
68197;BME280;55019;49.382;11.358;2023-02-14T13:29:26;98262.41;;;4.87;81.01
68197;BME280;55019;49.382;11.358;2023-02-14T13:31:56;98256.31;;;4.74;81.24
68197;BME280;55019;49.382;11.358;2023-02-14T13:34:35;98255.13;;;5.09;79.26
68197;BME280;55019;49.382;11.358;2023-02-14T13:37:06;98250.97;;;4.92;79.90
68197;BME280;55019;49.382;11.358;2023-02-14T13:39:40;98258.16;;;5.15;79.59
68197;BME280;55019;49.382;11.358;2023-02-14T13:42:11;98250.78;;;5.53;77.93
68197;BME280;55019;49.382;11.358;2023-02-14T13:44:49;98257.94;;;4.61;82.08
68197;BME280;55019;49.382;11.358;2023-02-14T13:47:21;98260.41;;;4.92;80.46
68197;BME280;55019;49.382;11.358;2023-02-14T13:49:54;98262.06;;;4.19;82.95
68197;BME280;55019;49.382;11.358;2023-02-14T13:52:41;98259.16;;;4.24;83.36
68197;BME280;55019;49.382;11.358;2023-02-14T13:55:08;98263.13;;;4.15;84.70
68197;BME280;55019;49.382;11.358;2023-02-14T13:57:38;98246.69;;;4.19;84.61
68197;BME280;55019;49.382;11.358;2023-02-14T14:02:55;98252.06;;;4.14;85.24
68197;BME280;55019;49.382;11.358;2023-02-14T14:05:45;98250.38;;;4.44;84.29
68197;BME280;55019;49.382;11.358;2023-02-14T14:10:50;98258.47;;;4.36;83.25
68197;BME280;55019;49.382;11.358;2023-02-14T14:25:01;98241.34;;;5.11;80.53
68197;BME280;55019;49.382;11.358;2023-02-14T14:27:33;98236.47;;;5.07;80.69
68197;BME280;55019;49.382;11.358;2023-02-14T14:30:02;98232.81;;;5.11;79.84
68197;BME280;55019;49.382;11.358;2023-02-14T14:32:36;98238.84;;;5.24;79.73
68197;BME280;55019;49.382;11.358;2023-02-14T14:37:34;98226.28;;;4.91;81.38
68197;BME280;55019;49.382;11.358;2023-02-14T14:40:06;98230.25;;;5.11;80.74
68197;BME280;55019;49.382;11.358;2023-02-14T14:42:38;98225.16;;;4.81;81.14
68197;BME280;55019;49.382;11.358;2023-02-14T14:45:21;98226.44;;;4.88;81.43
68197;BME280;55019;49.382;11.358;2023-02-14T14:47:48;98227.56;;;4.55;82.84
68197;BME280;55019;49.382;11.358;2023-02-14T14:50:21;98222.50;;;4.83;82.01
68197;BME280;55019;49.382;11.358;2023-02-14T14:52:51;98227.88;;;4.64;81.95
68197;BME280;55019;49.382;11.358;2023-02-14T14:55:22;98227.03;;;4.34;83.47
68197;BME280;55019;49.382;11.358;2023-02-14T14:57:50;98219.84;;;4.41;83.20
68197;BME280;55019;49.382;11.358;2023-02-14T15:00:25;98217.56;;;4.21;84.29
68197;BME280;55019;49.382;11.358;2023-02-14T15:05:29;98213.44;;;4.19;84.47
68197;BME280;55019;49.382;11.358;2023-02-14T15:07:55;98224.91;;;4.56;83.43
68197;BME280;55019;49.382;11.358;2023-02-14T15:10:28;98212.38;;;4.52;83.32
68197;BME280;55019;49.382;11.358;2023-02-14T15:12:57;98220.66;;;4.71;83.06
68197;BME280;55019;49.382;11.358;2023-02-14T15:15:46;98215.22;;;4.91;81.99
68197;BME280;55019;49.382;11.358;2023-02-14T15:18:14;98210.59;;;5.11;81.35